x

San Clemente Basin - 27nm Se Of San Clemente Is, Ca (46086) Wave Buoy

1:50pm - Tue 2nd Sep 2014 All times are PDT. -7 hours from GMT.

  • Sig Wave height 3.6ft
  • Swell Direction
  • Peak Period 16s
  • Average Period 7s
  • Wind
    7mph, 9mph gusts
  • Sea Temp 73°f
  • Air Temp 67°f
  • Sea Pressure 1010.1mb
  • San Clemente Basin - 27nm Se Of San Clemente Is, Ca
  • San Clemente Basin - 27nm Se Of San Clemente Is, Ca

More Historic Weather Station data

Upgrade to MSW Pro to gain access to the past 30 days of data for over 8000 Wavebouys and Weather Stations around the globe.

Join Pro

Comparision Forecast

View Surf forecast
   
Tue 09/02 1:50pm 3.5ft 16s 7s 7 9 mph 1010.1mb 73f 67f
12:50pm 3.5ft 15s 7s 4 7 mph 1010.8mb 72f 68f
11:50am 3.5ft 15s 7s 9 11 mph 1010.8mb 72f 68f
10:50am 4ft 15s 7s 7
mph
1011.1mb 72f 68f
9:50am 3.5ft 15s 6s 4 9 mph 1011.2mb 72f 68f
8:50am 4ft 16s 7s 4 7 mph 1011mb 72f 67f
7:50am 4.5ft 15s 7s 7 9 mph 1010.8mb 71f 67f
6:50am 4.5ft 14s 7s 7 9 mph 1010.7mb 71f 67f
5:50am 4.5ft 15s 7s 9 11 mph 1010.4mb 71f 67f
4:50am 4.5ft 15s 7s 9 11 mph 1010.2mb 71f 67f
3:50am 4.5ft 15s 6s 9 11 mph 1010.2mb 71f 68f
2:50am 4ft 15s 6s 11
mph
1010.2mb 71f 68f
1:50am 4ft 14s 6s 11 13 mph 1009.9mb 72f 69f
12:50am 4ft 15s 6s 11 13 mph 1010.1mb 72f 69f
Mon 09/01 11:50pm 4ft 13s 7s 11 13 mph 1010mb 72f 70f
10:50pm 4ft 15s 7s 9 11 mph 1010mb 72f 70f
9:50pm 4ft 15s 7s 11
mph
1009.7mb 72f 70f
8:50pm 4ft 15s 7s 9 11 mph 1009.4mb 73f 70f
7:50pm 4.5ft 15s 7s 7 9 mph 1009mb 72f 70f
6:50pm 4ft 14s 6s 9 11 mph 1008.5mb 72f 70f
5:50pm 4ft 15s 6s 7 9 mph 1008.4mb 73f 71f
4:50pm 4.5ft 15s 7s 4 7 mph 1008.5mb 73f 70f
3:50pm 4.5ft 14s 7s 2 4 mph 1008.8mb 73f 70f
2:50pm 4.5ft 15s 7s 2 4 mph 1008.9mb 72f 69f
1:50pm 4ft 15s 6s 2
mph
1009.5mb 72f 69f
12:50pm 4.5ft 15s 7s 2 4 mph 1009.8mb 72f 69f
11:50am 4.5ft 15s 6s 7 9 mph 1010.3mb 71f 68f
10:50am 4.5ft 15s 6s 7 9 mph 1010.3mb 71f 68f
9:50am 4.5ft 8s 7s 7 9 mph 1010.4mb 71f 67f
8:50am 5ft 7s 6s 7 9 mph 1009.9mb 71f 67f
7:50am 5ft 15s 6s 7 11 mph 1009.7mb 71f 66f
6:50am 5ft 15s 6s 9 13 mph 1009.2mb 71f 66f
5:50am 5ft 15s 6s 9 11 mph 1009mb 71f 67f
4:50am 5ft 15s 6s 9 11 mph 1008.8mb 71f 67f
3:50am 4.5ft 7s 6s 11 13 mph 1008.8mb 71f 68f
2:50am 4.5ft 15s 6s 11 13 mph 1009mb 72f 68f
1:50am 4.5ft 15s 6s 11 13 mph 1009mb 72f 69f
12:50am 4.5ft 15s 7s 9 11 mph 1009.3mb 72f 69f
Sun 08/31 11:50pm 4.5ft 15s 7s 9 11 mph 1009.6mb 72f 70f
10:50pm 4ft 16s 7s 7 9 mph 1009.6mb 72f 70f
9:50pm 4.5ft 15s 7s 7 9 mph 1009.4mb 72f 70f
8:50pm 4.5ft 15s 7s 4 7 mph 1009.3mb 72f 70f
7:50pm 4ft 15s 7s 4 7 mph 1008.8mb 72f 71f
6:50pm 3.5ft 15s 7s 4 9 mph 1008.5mb 72f 71f
5:50pm 4ft 15s 7s 2
mph
1008.7mb 72f 73f
4:50pm 4ft 15s 7s 4 7 mph 1008.7mb 72f 72f
3:50pm 4ft 8s 7s 7
mph
1008.8mb 72f 71f
2:50pm 4ft 15s 7s 7 9 mph 1009.2mb 72f 70f
1:50pm 4ft 8s 7s 9 11 mph 1009.7mb 72f 70f
12:50pm 4ft 7s 7s 7
mph
1010.1mb 72f 69f
11:50am 4ft 7s 7s 7
mph
1010.5mb 71f 69f
10:50am 4ft 7s 7s 7
mph
1010.4mb 71f 69f
9:50am 4ft 8s 7s 9 11 mph 1010.3mb 71f 69f
8:50am 4.5ft 7s 6s 7 9 mph 1009.9mb 71f 69f
7:50am 4.5ft 7s 7s 7 9 mph 1009.4mb 71f 69f
6:50am 4ft 8s 6s 9 11 mph 1009.1mb 71f 69f
5:50am 4ft 16s 7s 7 11 mph 1008.8mb 71f 69f
4:50am 4ft 16s 7s 7 9 mph 1008.3mb 71f 69f
3:50am 3.5ft 15s 6s 9 11 mph 1008.2mb 71f 69f
2:50am 3.5ft 16s 7s 7 9 mph 1008.3mb 71f 69f
1:50am 3.5ft 16s 7s 7
mph
1008.3mb 71f 69f
12:50am 3.5ft 8s 7s 4 7 mph 1008.4mb 71f 69f
Sat 08/30 11:50pm 3.5ft 16s 7s 2
mph
1008.5mb 71f 69f
10:50pm 3.5ft 7s 6s 7
mph
1008.3mb 71f 70f
9:50pm 3.5ft 16s 6s 7
mph
1008.3mb 71f 70f
8:50pm 3.5ft 16s 6s 4 7 mph 1008.3mb 71f 69f
7:50pm 3.5ft 7s 6s 9 11 mph 1007.6mb 72f 69f
6:50pm 3.5ft 16s 6s 9 11 mph 1007.7mb 72f 69f
5:50pm 3.5ft 16s 6s 11 13 mph 1007.8mb 72f 69f
4:50pm 3.5ft 16s 6s 9 11 mph 1007.9mb 72f 69f
3:50pm 3.5ft 8s 6s 11 13 mph 1008.2mb 72f 68f
2:50pm 4ft 7s 6s 9 11 mph 1008.7mb 72f 67f
1:50pm 4ft 7s 6s 9 11 mph 1009.5mb 72f 67f
12:50pm 3.5ft 15s 7s 9
mph
1009.9mb 72f 67f
11:50am 4ft 7s 6s 4 7 mph 1010.3mb 72f 67f
10:50am 4ft 7s 6s 4 7 mph 1010.7mb 72f 67f
9:50am 4.5ft 7s 6s 2 7 mph 1010.5mb 71f 67f
8:50am 4.5ft 15s 7s  -  2 mph 1010.5mb 71f 66f
7:50am 4ft 7s 6s 7 11 mph 1010.3mb 71f 66f
6:50am 4.5ft 7s 6s 4 7 mph 1010.2mb 71f 66f
5:50am 4.5ft 7s 6s 7 11 mph 1009.7mb 71f 66f
4:50am 4.5ft 13s 6s 7 11 mph 1009.6mb 71f 66f
3:50am 4.5ft 9s 6s 7 9 mph 1009.8mb 71f 67f
2:50am 4.5ft 7s 6s 7 9 mph 1009.7mb 71f 66f
1:50am 4.5ft 7s 6s 9 13 mph 1009.8mb 71f 66f
12:50am 4.5ft 7s 6s 11 13 mph 1010.1mb 71f 67f
Fri 08/29 11:50pm 4.5ft 15s 6s 13 16 mph 1010.3mb 71f 67f
10:50pm 4.5ft 7s 5s 13 16 mph 1010.4mb 72f 67f
9:50pm 5ft 7s 6s 16 18 mph 1010.7mb 72f 67f